GLO1854 SBGL-SBFI
Flight info
| Callsign | GLO1854 |
|---|---|
| Flight time | 1h 50m |
| Altitude | 34000 |
| Route | NAXOP Z35 UKDAN DCT ATIMA Z91 CTB W34 VUGLA |
| Aircraft | B738/M-SDFGIKLORWXY/LB1 |
Departure
| Time | 2026-04-27 11:41 |
|---|---|
| Airport | Rio Galeão – Tom Jobim International Airport (SBGL) |
Arrival
| Time | 2026-04-27 13:31 |
|---|---|
| Airport | Cataratas International Airport (SBFI) |
| Time | Latitude | Longitude | Altitude | Speed | Heading |
|---|---|---|---|---|---|
| 2026-04-27 11:26 | -22.81451 | -43.25221 | 25 ft | 0 kts | 214° |
| 2026-04-27 11:32 | -22.81433 | -43.25210 | 25 ft | 4 kts | 184° |
| 2026-04-27 11:32 | -22.81411 | -43.25217 | 25 ft | 4 kts | 131° |
| 2026-04-27 11:33 | -22.81405 | -43.25225 | 25 ft | 1 kts | 125° |
| 2026-04-27 11:34 | -22.81411 | -43.25217 | 29 ft | 4 kts | 125° |
| 2026-04-27 11:35 | -22.81437 | -43.25176 | 27 ft | 8 kts | 125° |
| 2026-04-27 11:35 | -22.81484 | -43.25162 | 25 ft | 8 kts | 204° |
| 2026-04-27 11:35 | -22.81545 | -43.25205 | 25 ft | 14 kts | 214° |
| 2026-04-27 11:35 | -22.81634 | -43.25274 | 29 ft | 16 kts | 217° |
| 2026-04-27 11:36 | -22.81729 | -43.25328 | 25 ft | 16 kts | 167° |
| 2026-04-27 11:36 | -22.81804 | -43.25248 | 30 ft | 15 kts | 126° |
| 2026-04-27 11:36 | -22.81864 | -43.25158 | 28 ft | 14 kts | 126° |
| 2026-04-27 11:36 | -22.81922 | -43.25072 | 29 ft | 14 kts | 126° |
| 2026-04-27 11:37 | -22.81977 | -43.24989 | 26 ft | 13 kts | 126° |
| 2026-04-27 11:37 | -22.82030 | -43.24910 | 27 ft | 13 kts | 126° |
| 2026-04-27 11:37 | -22.82080 | -43.24832 | 28 ft | 12 kts | 124° |
| 2026-04-27 11:37 | -22.82132 | -43.24751 | 26 ft | 14 kts | 124° |
| 2026-04-27 11:38 | -22.82187 | -43.24668 | 29 ft | 13 kts | 126° |
| 2026-04-27 11:38 | -22.82240 | -43.24590 | 28 ft | 13 kts | 126° |
| 2026-04-27 11:38 | -22.82290 | -43.24514 | 29 ft | 12 kts | 126° |
| 2026-04-27 11:38 | -22.82341 | -43.24439 | 28 ft | 12 kts | 126° |
| 2026-04-27 11:39 | -22.82390 | -43.24366 | 28 ft | 12 kts | 126° |
| 2026-04-27 11:39 | -22.82448 | -43.24276 | 28 ft | 16 kts | 124° |
| 2026-04-27 11:39 | -22.82498 | -43.24199 | 27 ft | 8 kts | 125° |
| 2026-04-27 11:39 | -22.82542 | -43.24174 | 29 ft | 7 kts | 175° |
| 2026-04-27 11:40 | -22.82594 | -43.24201 | 25 ft | 10 kts | 215° |
| 2026-04-27 11:40 | -22.82627 | -43.24269 | 30 ft | 11 kts | 280° |
| 2026-04-27 11:40 | -22.82550 | -43.24395 | 26 ft | 47 kts | 306° |
| 2026-04-27 11:40 | -22.82215 | -43.24901 | 27 ft | 116 kts | 306° |
| 2026-04-27 11:41 | -22.81632 | -43.25791 | 35 ft | 171 kts | 305° |
| 2026-04-27 11:41 | -22.80890 | -43.26870 | 645 ft | 180 kts | 306° |
| 2026-04-27 11:41 | -22.80103 | -43.27972 | 1363 ft | 190 kts | 306° |
| 2026-04-27 11:41 | -22.79267 | -43.29212 | 1688 ft | 217 kts | 303° |
| 2026-04-27 11:42 | -22.78365 | -43.30624 | 2012 ft | 236 kts | 303° |
| 2026-04-27 11:42 | -22.77390 | -43.32162 | 2338 ft | 255 kts | 300° |
| 2026-04-27 11:42 | -22.76964 | -43.34027 | 3029 ft | 263 kts | 265° |
| 2026-04-27 11:42 | -22.77585 | -43.35901 | 3835 ft | 270 kts | 238° |
| 2026-04-27 11:43 | -22.78816 | -43.37478 | 4629 ft | 277 kts | 227° |
| 2026-04-27 11:43 | -22.80186 | -43.38951 | 5469 ft | 279 kts | 225° |
| 2026-04-27 11:43 | -22.81590 | -43.40411 | 6270 ft | 281 kts | 225° |
| 2026-04-27 11:43 | -22.83012 | -43.41889 | 7030 ft | 285 kts | 225° |
| 2026-04-27 11:44 | -22.84443 | -43.43384 | 7809 ft | 287 kts | 226° |
| 2026-04-27 11:44 | -22.85883 | -43.44899 | 8549 ft | 289 kts | 226° |
| 2026-04-27 11:44 | -22.87311 | -43.46411 | 9274 ft | 292 kts | 226° |
| 2026-04-27 11:44 | -22.88767 | -43.47959 | 9990 ft | 294 kts | 226° |
| 2026-04-27 11:45 | -22.90268 | -43.49560 | 10463 ft | 308 kts | 226° |
| 2026-04-27 11:45 | -22.91301 | -43.50666 | 10585 ft | 322 kts | 226° |
| 2026-04-27 11:45 | -22.93485 | -43.53007 | 11219 ft | 335 kts | 226° |
| 2026-04-27 11:45 | -22.95148 | -43.54790 | 11915 ft | 337 kts | 226° |
| 2026-04-27 11:46 | -22.96819 | -43.56582 | 12650 ft | 338 kts | 227° |
| 2026-04-27 11:46 | -22.98470 | -43.58355 | 13370 ft | 339 kts | 227° |
| 2026-04-27 11:46 | -23.00150 | -43.60160 | 14026 ft | 342 kts | 227° |
| 2026-04-27 11:46 | -23.01847 | -43.61984 | 14662 ft | 344 kts | 227° |
| 2026-04-27 11:47 | -23.03552 | -43.63816 | 15310 ft | 346 kts | 227° |
| 2026-04-27 11:47 | -23.05271 | -43.65656 | 15954 ft | 347 kts | 227° |
| 2026-04-27 11:47 | -23.06999 | -43.67505 | 16552 ft | 350 kts | 227° |
| 2026-04-27 11:47 | -23.08739 | -43.69371 | 17137 ft | 352 kts | 227° |
| 2026-04-27 11:48 | -23.10454 | -43.71215 | 17708 ft | 354 kts | 227° |
| 2026-04-27 11:48 | -23.12204 | -43.73100 | 18299 ft | 355 kts | 228° |
| 2026-04-27 11:48 | -23.13960 | -43.74993 | 18834 ft | 357 kts | 228° |
| 2026-04-27 11:48 | -23.15733 | -43.76907 | 19311 ft | 361 kts | 228° |
| 2026-04-27 11:49 | -23.17522 | -43.78840 | 19787 ft | 364 kts | 228° |
| 2026-04-27 11:49 | -23.19326 | -43.80790 | 20298 ft | 366 kts | 228° |
| 2026-04-27 11:49 | -23.21135 | -43.82746 | 20777 ft | 368 kts | 229° |
| 2026-04-27 11:49 | -23.22957 | -43.84717 | 21207 ft | 371 kts | 229° |
| 2026-04-27 11:50 | -23.24793 | -43.86705 | 21649 ft | 374 kts | 229° |
| 2026-04-27 11:50 | -23.26643 | -43.88707 | 22089 ft | 376 kts | 229° |
| 2026-04-27 11:50 | -23.28480 | -43.90696 | 22490 ft | 379 kts | 229° |
| 2026-04-27 11:50 | -23.30356 | -43.92729 | 22884 ft | 381 kts | 229° |
| 2026-04-27 11:51 | -23.32237 | -43.94768 | 23289 ft | 383 kts | 229° |
| 2026-04-27 11:51 | -23.34130 | -43.96821 | 23697 ft | 385 kts | 229° |
| 2026-04-27 11:51 | -23.37944 | -44.00960 | 24406 ft | 390 kts | 230° |
| 2026-04-27 11:52 | -23.39866 | -44.03047 | 24788 ft | 391 kts | 230° |
| 2026-04-27 11:52 | -23.41796 | -44.05144 | 25139 ft | 393 kts | 230° |
| 2026-04-27 11:52 | -23.43733 | -44.07248 | 25485 ft | 395 kts | 230° |
| 2026-04-27 11:52 | -23.45683 | -44.09368 | 25805 ft | 397 kts | 230° |
| 2026-04-27 11:53 | -23.47643 | -44.11500 | 26141 ft | 399 kts | 230° |
| 2026-04-27 11:53 | -23.49530 | -44.13718 | 26461 ft | 397 kts | 237° |
| 2026-04-27 11:53 | -23.51029 | -44.16224 | 26783 ft | 394 kts | 245° |
| 2026-04-27 11:53 | -23.52201 | -44.18914 | 27118 ft | 391 kts | 253° |
| 2026-04-27 11:54 | -23.52979 | -44.21745 | 27419 ft | 391 kts | 258° |
| 2026-04-27 11:54 | -23.53641 | -44.24629 | 27720 ft | 392 kts | 259° |
| 2026-04-27 11:54 | -23.54281 | -44.27525 | 27999 ft | 395 kts | 259° |
| 2026-04-27 11:54 | -23.54924 | -44.30442 | 28305 ft | 396 kts | 259° |
| 2026-04-27 11:55 | -23.55573 | -44.33365 | 28610 ft | 397 kts | 259° |
| 2026-04-27 11:55 | -23.56230 | -44.36298 | 28886 ft | 399 kts | 259° |
| 2026-04-27 11:55 | -23.56896 | -44.39247 | 29144 ft | 402 kts | 259° |
| 2026-04-27 11:55 | -23.57568 | -44.42205 | 29413 ft | 403 kts | 259° |
| 2026-04-27 11:56 | -23.58245 | -44.45180 | 29691 ft | 405 kts | 259° |
| 2026-04-27 11:56 | -23.58924 | -44.48163 | 29938 ft | 407 kts | 259° |
| 2026-04-27 11:56 | -23.59606 | -44.51162 | 30183 ft | 408 kts | 259° |
| 2026-04-27 11:56 | -23.60281 | -44.54131 | 30426 ft | 410 kts | 259° |
| 2026-04-27 11:57 | -23.60968 | -44.57154 | 30671 ft | 412 kts | 259° |
| 2026-04-27 11:57 | -23.61657 | -44.60190 | 30903 ft | 413 kts | 259° |
| 2026-04-27 11:57 | -23.62356 | -44.63277 | 31127 ft | 415 kts | 259° |
| 2026-04-27 11:57 | -23.63042 | -44.66304 | 31314 ft | 417 kts | 259° |
| 2026-04-27 11:58 | -23.63739 | -44.69390 | 31515 ft | 419 kts | 259° |
| 2026-04-27 11:58 | -23.64437 | -44.72478 | 31737 ft | 420 kts | 259° |
| 2026-04-27 11:58 | -23.65137 | -44.75577 | 31955 ft | 421 kts | 259° |
| 2026-04-27 11:58 | -23.65838 | -44.78684 | 32156 ft | 423 kts | 259° |
| 2026-04-27 11:59 | -23.66541 | -44.81806 | 32334 ft | 425 kts | 259° |
| 2026-04-27 11:59 | -23.67246 | -44.84940 | 32528 ft | 426 kts | 259° |
| 2026-04-27 11:59 | -23.67952 | -44.88077 | 32778 ft | 426 kts | 259° |
| 2026-04-27 11:59 | -23.68657 | -44.91215 | 33082 ft | 424 kts | 259° |
| 2026-04-27 12:00 | -23.69358 | -44.94335 | 33360 ft | 423 kts | 259° |
| 2026-04-27 12:00 | -23.70057 | -44.97452 | 33568 ft | 424 kts | 259° |
| 2026-04-27 12:00 | -23.70756 | -45.00577 | 33784 ft | 424 kts | 259° |
| 2026-04-27 12:00 | -23.71452 | -45.03688 | 34028 ft | 422 kts | 259° |
| 2026-04-27 12:01 | -23.72148 | -45.06798 | 34001 ft | 417 kts | 259° |
| 2026-04-27 12:01 | -23.73490 | -45.12808 | 34017 ft | 407 kts | 259° |
| 2026-04-27 12:02 | -23.74823 | -45.18800 | 34030 ft | 405 kts | 259° |
| 2026-04-27 12:02 | -23.76149 | -45.24767 | 34037 ft | 404 kts | 259° |
| 2026-04-27 12:03 | -23.77470 | -45.30732 | 34045 ft | 404 kts | 259° |
| 2026-04-27 12:03 | -23.78788 | -45.36694 | 34051 ft | 405 kts | 259° |
| 2026-04-27 12:04 | -23.80108 | -45.42676 | 34042 ft | 405 kts | 260° |
| 2026-04-27 12:04 | -23.81426 | -45.48661 | 34007 ft | 404 kts | 261° |
| 2026-04-27 12:05 | -23.82735 | -45.54618 | 34053 ft | 403 kts | 261° |
| 2026-04-27 12:05 | -23.84043 | -45.60584 | 34046 ft | 404 kts | 261° |
| 2026-04-27 12:06 | -23.85353 | -45.66563 | 34039 ft | 405 kts | 261° |
| 2026-04-27 12:06 | -23.86661 | -45.72547 | 34039 ft | 405 kts | 261° |
| 2026-04-27 12:07 | -23.87972 | -45.78551 | 34032 ft | 406 kts | 261° |
| 2026-04-27 12:07 | -23.89278 | -45.84548 | 34022 ft | 406 kts | 261° |
| 2026-04-27 12:08 | -23.90583 | -45.90549 | 34010 ft | 406 kts | 261° |
| 2026-04-27 12:08 | -23.91884 | -45.96543 | 34010 ft | 405 kts | 261° |
| 2026-04-27 12:09 | -23.92963 | -46.01527 | 33994 ft | 405 kts | 261° |
| 2026-04-27 12:09 | -23.94258 | -46.07517 | 33983 ft | 404 kts | 261° |
| 2026-04-27 12:10 | -23.95547 | -46.13494 | 33972 ft | 404 kts | 261° |
| 2026-04-27 12:10 | -23.96833 | -46.19467 | 33972 ft | 403 kts | 261° |
| 2026-04-27 12:11 | -23.98116 | -46.25431 | 33968 ft | 402 kts | 261° |
| 2026-04-27 12:11 | -23.99846 | -46.31274 | 33978 ft | 405 kts | 255° |
| 2026-04-27 12:12 | -24.01751 | -46.37087 | 33972 ft | 405 kts | 255° |
| 2026-04-27 12:12 | -24.03630 | -46.42891 | 33982 ft | 405 kts | 255° |
| 2026-04-27 12:13 | -24.05481 | -46.48668 | 33990 ft | 404 kts | 255° |
| 2026-04-27 12:13 | -24.07339 | -46.54477 | 33999 ft | 404 kts | 255° |
| 2026-04-27 12:14 | -24.09179 | -46.60289 | 34024 ft | 403 kts | 256° |
| 2026-04-27 12:14 | -24.11001 | -46.66090 | 34046 ft | 403 kts | 256° |
| 2026-04-27 12:15 | -24.12830 | -46.71913 | 34018 ft | 405 kts | 256° |
| 2026-04-27 12:15 | -24.14661 | -46.77743 | 34016 ft | 403 kts | 256° |
| 2026-04-27 12:16 | -24.16497 | -46.83555 | 34019 ft | 404 kts | 255° |
| 2026-04-27 12:16 | -24.18330 | -46.89356 | 34114 ft | 403 kts | 256° |
| 2026-04-27 12:17 | -24.20160 | -46.95161 | 34125 ft | 403 kts | 256° |
| 2026-04-27 12:17 | -24.21977 | -47.00939 | 34131 ft | 404 kts | 256° |
| 2026-04-27 12:18 | -24.23810 | -47.06775 | 34122 ft | 406 kts | 256° |
| 2026-04-27 12:18 | -24.25647 | -47.12630 | 34126 ft | 406 kts | 256° |
| 2026-04-27 12:19 | -24.27437 | -47.18509 | 34128 ft | 406 kts | 257° |
| 2026-04-27 12:19 | -24.29150 | -47.24417 | 34130 ft | 406 kts | 257° |
| 2026-04-27 12:20 | -24.30859 | -47.30323 | 34128 ft | 406 kts | 257° |
| 2026-04-27 12:20 | -24.32563 | -47.36188 | 34126 ft | 406 kts | 257° |
| 2026-04-27 12:21 | -24.34281 | -47.42095 | 34130 ft | 406 kts | 256° |
| 2026-04-27 12:21 | -24.35996 | -47.47999 | 34120 ft | 406 kts | 257° |
| 2026-04-27 12:22 | -24.37708 | -47.53906 | 34122 ft | 406 kts | 257° |
| 2026-04-27 12:22 | -24.39405 | -47.59765 | 34121 ft | 405 kts | 257° |
| 2026-04-27 12:23 | -24.41110 | -47.65667 | 34120 ft | 405 kts | 257° |
| 2026-04-27 12:23 | -24.42603 | -47.71599 | 34123 ft | 402 kts | 262° |
| 2026-04-27 12:24 | -24.43668 | -47.77615 | 34119 ft | 401 kts | 263° |
| 2026-04-27 12:24 | -24.44715 | -47.83639 | 34121 ft | 402 kts | 263° |
| 2026-04-27 12:25 | -24.45773 | -47.89667 | 34123 ft | 402 kts | 263° |
| 2026-04-27 12:25 | -24.46841 | -47.95706 | 34120 ft | 402 kts | 263° |
| 2026-04-27 12:26 | -24.47901 | -48.01700 | 34118 ft | 403 kts | 263° |
| 2026-04-27 12:26 | -24.48966 | -48.07730 | 34121 ft | 403 kts | 263° |
| 2026-04-27 12:27 | -24.50030 | -48.13771 | 34115 ft | 403 kts | 263° |
| 2026-04-27 12:27 | -24.51091 | -48.19812 | 34106 ft | 402 kts | 263° |
| 2026-04-27 12:28 | -24.52148 | -48.25838 | 34113 ft | 402 kts | 263° |
| 2026-04-27 12:28 | -24.53201 | -48.31862 | 34127 ft | 401 kts | 263° |
| 2026-04-27 12:29 | -24.54251 | -48.37885 | 34120 ft | 401 kts | 263° |
| 2026-04-27 12:29 | -24.55298 | -48.43906 | 34121 ft | 401 kts | 263° |
| 2026-04-27 12:30 | -24.56345 | -48.49932 | 34131 ft | 400 kts | 263° |
| 2026-04-27 12:30 | -24.57379 | -48.55904 | 34126 ft | 400 kts | 263° |
| 2026-04-27 12:31 | -24.58424 | -48.61959 | 34107 ft | 401 kts | 263° |
| 2026-04-27 12:31 | -24.59450 | -48.67911 | 34117 ft | 397 kts | 263° |
| 2026-04-27 12:32 | -24.60477 | -48.73883 | 34103 ft | 397 kts | 263° |
| 2026-04-27 12:32 | -24.61498 | -48.79843 | 34108 ft | 397 kts | 263° |
| 2026-04-27 12:33 | -24.62518 | -48.85809 | 34102 ft | 397 kts | 263° |
| 2026-04-27 12:33 | -24.63536 | -48.91778 | 34100 ft | 397 kts | 263° |
| 2026-04-27 12:34 | -24.64553 | -48.97752 | 34101 ft | 398 kts | 263° |
| 2026-04-27 12:34 | -24.65567 | -49.03727 | 34098 ft | 398 kts | 263° |
| 2026-04-27 12:35 | -24.66572 | -49.09662 | 34105 ft | 397 kts | 263° |
| 2026-04-27 12:35 | -24.67580 | -49.15625 | 34109 ft | 396 kts | 263° |
| 2026-04-27 12:36 | -24.68583 | -49.21580 | 34113 ft | 395 kts | 263° |
| 2026-04-27 12:36 | -24.69582 | -49.27526 | 34126 ft | 395 kts | 263° |
| 2026-04-27 12:37 | -24.70579 | -49.33469 | 34125 ft | 395 kts | 263° |
| 2026-04-27 12:37 | -24.71573 | -49.39418 | 34123 ft | 396 kts | 263° |
| 2026-04-27 12:38 | -24.72566 | -49.45376 | 34118 ft | 396 kts | 263° |
| 2026-04-27 12:38 | -24.73559 | -49.51341 | 34125 ft | 396 kts | 263° |
| 2026-04-27 12:39 | -24.74549 | -49.57304 | 34122 ft | 396 kts | 263° |
| 2026-04-27 12:39 | -24.75537 | -49.63273 | 34120 ft | 396 kts | 263° |
| 2026-04-27 12:40 | -24.76522 | -49.69241 | 34120 ft | 397 kts | 263° |
| 2026-04-27 12:40 | -24.77507 | -49.75222 | 34120 ft | 397 kts | 263° |
| 2026-04-27 12:41 | -24.78490 | -49.81207 | 34120 ft | 397 kts | 263° |
| 2026-04-27 12:41 | -24.79465 | -49.87154 | 34119 ft | 397 kts | 263° |
| 2026-04-27 12:42 | -24.80443 | -49.93142 | 34118 ft | 397 kts | 263° |
| 2026-04-27 12:42 | -24.81418 | -49.99120 | 34122 ft | 397 kts | 263° |
| 2026-04-27 12:43 | -24.82391 | -50.05105 | 34118 ft | 396 kts | 263° |
| 2026-04-27 12:43 | -24.83352 | -50.11032 | 34125 ft | 395 kts | 263° |
| 2026-04-27 12:44 | -24.84315 | -50.16988 | 34118 ft | 395 kts | 263° |
| 2026-04-27 12:44 | -24.85275 | -50.22935 | 34112 ft | 394 kts | 263° |
| 2026-04-27 12:45 | -24.86231 | -50.28881 | 34111 ft | 394 kts | 263° |
| 2026-04-27 12:45 | -24.87183 | -50.34813 | 34106 ft | 393 kts | 263° |
| 2026-04-27 12:46 | -24.88131 | -50.40734 | 34113 ft | 392 kts | 263° |
| 2026-04-27 12:46 | -24.89075 | -50.46650 | 34110 ft | 391 kts | 263° |
| 2026-04-27 12:47 | -24.90015 | -50.52547 | 34114 ft | 391 kts | 263° |
| 2026-04-27 12:47 | -24.90944 | -50.58402 | 34111 ft | 390 kts | 263° |
| 2026-04-27 12:48 | -24.91877 | -50.64290 | 34109 ft | 390 kts | 263° |
| 2026-04-27 12:48 | -24.92807 | -50.70178 | 34112 ft | 390 kts | 263° |
| 2026-04-27 12:49 | -24.93735 | -50.76072 | 34113 ft | 390 kts | 263° |
| 2026-04-27 12:49 | -24.94659 | -50.81955 | 34109 ft | 390 kts | 263° |
| 2026-04-27 12:50 | -24.95582 | -50.87841 | 34112 ft | 390 kts | 263° |
| 2026-04-27 12:50 | -24.96503 | -50.93737 | 34112 ft | 390 kts | 263° |
| 2026-04-27 12:51 | -24.97422 | -50.99626 | 34117 ft | 390 kts | 263° |
| 2026-04-27 12:51 | -24.98338 | -51.05522 | 34107 ft | 390 kts | 263° |
| 2026-04-27 12:52 | -24.99246 | -51.11377 | 34104 ft | 390 kts | 263° |
| 2026-04-27 12:52 | -25.00157 | -51.17267 | 34101 ft | 390 kts | 263° |
| 2026-04-27 12:53 | -25.01517 | -51.26096 | 34093 ft | 389 kts | 263° |
| 2026-04-27 12:53 | -25.02422 | -51.31984 | 34092 ft | 390 kts | 263° |
| 2026-04-27 12:54 | -25.03324 | -51.37877 | 34091 ft | 389 kts | 263° |
| 2026-04-27 12:54 | -25.04073 | -51.42772 | 34092 ft | 389 kts | 263° |
| 2026-04-27 12:55 | -25.04970 | -51.48661 | 34092 ft | 388 kts | 263° |
| 2026-04-27 12:55 | -25.05864 | -51.54539 | 34091 ft | 388 kts | 263° |
| 2026-04-27 12:56 | -25.06753 | -51.60408 | 34084 ft | 387 kts | 263° |
| 2026-04-27 12:56 | -25.07633 | -51.66223 | 34088 ft | 387 kts | 264° |
| 2026-04-27 12:57 | -25.08515 | -51.72078 | 34092 ft | 386 kts | 264° |
| 2026-04-27 12:57 | -25.09394 | -51.77926 | 34097 ft | 386 kts | 264° |
| 2026-04-27 12:58 | -25.10270 | -51.83766 | 34096 ft | 385 kts | 264° |
| 2026-04-27 12:58 | -25.11141 | -51.89596 | 34108 ft | 385 kts | 264° |
| 2026-04-27 12:59 | -25.12010 | -51.95422 | 34122 ft | 384 kts | 264° |
| 2026-04-27 12:59 | -25.12875 | -52.01240 | 34118 ft | 384 kts | 264° |
| 2026-04-27 13:00 | -25.13739 | -52.07069 | 34112 ft | 384 kts | 264° |
| 2026-04-27 13:00 | -25.14600 | -52.12886 | 34107 ft | 384 kts | 264° |
| 2026-04-27 13:01 | -25.15451 | -52.18661 | 34120 ft | 383 kts | 264° |
| 2026-04-27 13:01 | -25.16305 | -52.24466 | 34117 ft | 383 kts | 264° |
| 2026-04-27 13:02 | -25.17156 | -52.30272 | 34117 ft | 383 kts | 264° |
| 2026-04-27 13:02 | -25.18005 | -52.36072 | 34120 ft | 382 kts | 264° |
| 2026-04-27 13:03 | -25.18848 | -52.41856 | 34120 ft | 382 kts | 264° |
| 2026-04-27 13:03 | -25.19689 | -52.47639 | 34124 ft | 381 kts | 264° |
| 2026-04-27 13:04 | -25.20528 | -52.53424 | 34118 ft | 382 kts | 264° |
| 2026-04-27 13:04 | -25.21364 | -52.59207 | 34124 ft | 381 kts | 264° |
| 2026-04-27 13:05 | -25.22193 | -52.64965 | 34128 ft | 385 kts | 264° |
| 2026-04-27 13:05 | -25.23042 | -52.70879 | 34128 ft | 395 kts | 264° |
| 2026-04-27 13:06 | -25.23914 | -52.76972 | 33600 ft | 410 kts | 264° |
| 2026-04-27 13:06 | -25.24359 | -52.80089 | 32942 ft | 411 kts | 264° |
| 2026-04-27 13:06 | -25.24805 | -52.83200 | 32351 ft | 408 kts | 263° |
| 2026-04-27 13:07 | -25.25247 | -52.86282 | 31866 ft | 403 kts | 264° |
| 2026-04-27 13:07 | -25.25681 | -52.89325 | 31362 ft | 399 kts | 264° |
| 2026-04-27 13:07 | -25.26112 | -52.92350 | 30863 ft | 395 kts | 264° |
| 2026-04-27 13:07 | -25.26536 | -52.95337 | 30368 ft | 391 kts | 264° |
| 2026-04-27 13:08 | -25.26949 | -52.98248 | 29889 ft | 387 kts | 263° |
| 2026-04-27 13:08 | -25.27368 | -53.01210 | 29389 ft | 383 kts | 264° |
| 2026-04-27 13:08 | -25.27777 | -53.04105 | 28884 ft | 380 kts | 264° |
| 2026-04-27 13:08 | -25.28176 | -53.06935 | 28395 ft | 376 kts | 264° |
| 2026-04-27 13:09 | -25.28577 | -53.09785 | 27903 ft | 373 kts | 264° |
| 2026-04-27 13:09 | -25.28974 | -53.12602 | 27403 ft | 370 kts | 264° |
| 2026-04-27 13:09 | -25.29367 | -53.15405 | 26917 ft | 367 kts | 264° |
| 2026-04-27 13:09 | -25.29754 | -53.18182 | 26427 ft | 364 kts | 265° |
| 2026-04-27 13:10 | -25.30017 | -53.20947 | 25942 ft | 360 kts | 268° |
| 2026-04-27 13:10 | -25.30210 | -53.23689 | 25470 ft | 356 kts | 269° |
| 2026-04-27 13:10 | -25.30381 | -53.26407 | 25000 ft | 353 kts | 269° |
| 2026-04-27 13:10 | -25.30548 | -53.29112 | 24519 ft | 351 kts | 269° |
| 2026-04-27 13:11 | -25.30716 | -53.31794 | 24055 ft | 348 kts | 269° |
| 2026-04-27 13:11 | -25.30886 | -53.34453 | 23592 ft | 346 kts | 269° |
| 2026-04-27 13:11 | -25.31056 | -53.37099 | 23115 ft | 344 kts | 269° |
| 2026-04-27 13:11 | -25.31227 | -53.39732 | 22654 ft | 342 kts | 269° |
| 2026-04-27 13:12 | -25.31397 | -53.42345 | 22194 ft | 340 kts | 269° |
| 2026-04-27 13:12 | -25.31565 | -53.44907 | 21741 ft | 338 kts | 269° |
| 2026-04-27 13:12 | -25.31736 | -53.47517 | 21278 ft | 335 kts | 268° |
| 2026-04-27 13:12 | -25.31901 | -53.50040 | 20841 ft | 333 kts | 268° |
| 2026-04-27 13:13 | -25.32067 | -53.52585 | 20382 ft | 330 kts | 268° |
| 2026-04-27 13:13 | -25.32231 | -53.55105 | 19957 ft | 328 kts | 269° |
| 2026-04-27 13:13 | -25.32395 | -53.57614 | 19524 ft | 326 kts | 268° |
| 2026-04-27 13:13 | -25.32556 | -53.60106 | 19073 ft | 324 kts | 268° |
| 2026-04-27 13:14 | -25.32717 | -53.62586 | 18653 ft | 322 kts | 268° |
| 2026-04-27 13:14 | -25.32876 | -53.65057 | 18220 ft | 321 kts | 268° |
| 2026-04-27 13:14 | -25.33034 | -53.67512 | 17795 ft | 319 kts | 268° |
| 2026-04-27 13:14 | -25.33190 | -53.69945 | 17374 ft | 316 kts | 268° |
| 2026-04-27 13:15 | -25.33345 | -53.72364 | 16953 ft | 314 kts | 268° |
| 2026-04-27 13:15 | -25.33496 | -53.74735 | 16556 ft | 312 kts | 268° |
| 2026-04-27 13:15 | -25.33649 | -53.77124 | 16145 ft | 311 kts | 268° |
| 2026-04-27 13:15 | -25.33800 | -53.79504 | 15729 ft | 309 kts | 268° |
| 2026-04-27 13:16 | -25.33950 | -53.81869 | 15331 ft | 308 kts | 268° |
| 2026-04-27 13:16 | -25.34098 | -53.84223 | 14923 ft | 306 kts | 268° |
| 2026-04-27 13:16 | -25.34246 | -53.86560 | 14535 ft | 304 kts | 267° |
| 2026-04-27 13:16 | -25.34391 | -53.88887 | 14133 ft | 303 kts | 267° |
| 2026-04-27 13:17 | -25.34537 | -53.91206 | 13744 ft | 302 kts | 267° |
| 2026-04-27 13:17 | -25.34682 | -53.93514 | 13367 ft | 300 kts | 267° |
| 2026-04-27 13:17 | -25.34825 | -53.95815 | 12969 ft | 299 kts | 267° |
| 2026-04-27 13:17 | -25.34968 | -53.98106 | 12578 ft | 298 kts | 267° |
| 2026-04-27 13:18 | -25.35110 | -54.00388 | 12200 ft | 297 kts | 266° |
| 2026-04-27 13:18 | -25.35251 | -54.02667 | 11819 ft | 296 kts | 266° |
| 2026-04-27 13:18 | -25.35391 | -54.04934 | 11434 ft | 295 kts | 266° |
| 2026-04-27 13:18 | -25.35530 | -54.07191 | 11067 ft | 294 kts | 266° |
| 2026-04-27 13:19 | -25.35668 | -54.09443 | 10694 ft | 294 kts | 266° |
| 2026-04-27 13:19 | -25.35805 | -54.11675 | 10543 ft | 287 kts | 266° |
| 2026-04-27 13:19 | -25.35941 | -54.13872 | 10412 ft | 285 kts | 266° |
| 2026-04-27 13:19 | -25.36074 | -54.16053 | 10280 ft | 284 kts | 266° |
| 2026-04-27 13:20 | -25.36205 | -54.18227 | 10159 ft | 282 kts | 266° |
| 2026-04-27 13:20 | -25.36336 | -54.20383 | 9855 ft | 280 kts | 266° |
| 2026-04-27 13:20 | -25.36467 | -54.22528 | 9552 ft | 279 kts | 266° |
| 2026-04-27 13:20 | -25.36596 | -54.24659 | 9238 ft | 278 kts | 266° |
| 2026-04-27 13:21 | -25.36722 | -54.26760 | 8938 ft | 278 kts | 266° |
| 2026-04-27 13:21 | -25.36849 | -54.28889 | 8643 ft | 277 kts | 266° |
| 2026-04-27 13:21 | -25.36976 | -54.31016 | 8332 ft | 278 kts | 266° |
| 2026-04-27 13:21 | -25.37105 | -54.33154 | 8013 ft | 278 kts | 266° |
| 2026-04-27 13:22 | -25.37233 | -54.35290 | 7719 ft | 278 kts | 265° |
| 2026-04-27 13:22 | -25.37363 | -54.37429 | 7403 ft | 279 kts | 265° |
| 2026-04-27 13:22 | -25.37492 | -54.39565 | 7093 ft | 279 kts | 265° |
| 2026-04-27 13:22 | -25.37617 | -54.41703 | 6787 ft | 278 kts | 265° |
| 2026-04-27 13:23 | -25.37741 | -54.43833 | 6491 ft | 278 kts | 265° |
| 2026-04-27 13:23 | -25.37866 | -54.45963 | 6184 ft | 277 kts | 265° |
| 2026-04-27 13:23 | -25.37987 | -54.48035 | 6101 ft | 261 kts | 265° |
| 2026-04-27 13:23 | -25.38102 | -54.49988 | 5843 ft | 247 kts | 264° |
| 2026-04-27 13:24 | -25.38210 | -54.51837 | 5596 ft | 235 kts | 264° |
| 2026-04-27 13:24 | -25.38313 | -54.53599 | 5343 ft | 224 kts | 264° |
| 2026-04-27 13:24 | -25.38409 | -54.55258 | 5087 ft | 214 kts | 264° |
| 2026-04-27 13:24 | -25.38505 | -54.56892 | 4838 ft | 213 kts | 264° |
| 2026-04-27 13:25 | -25.38648 | -54.58511 | 4586 ft | 210 kts | 252° |
| 2026-04-27 13:25 | -25.39418 | -54.59785 | 4515 ft | 195 kts | 216° |
| 2026-04-27 13:25 | -25.40565 | -54.60483 | 4515 ft | 185 kts | 200° |
| 2026-04-27 13:25 | -25.41797 | -54.60990 | 4418 ft | 192 kts | 199° |
| 2026-04-27 13:26 | -25.43043 | -54.61492 | 4243 ft | 189 kts | 199° |
| 2026-04-27 13:26 | -25.44242 | -54.61981 | 4107 ft | 179 kts | 199° |
| 2026-04-27 13:26 | -25.45395 | -54.62454 | 3988 ft | 176 kts | 199° |
| 2026-04-27 13:26 | -25.46558 | -54.62921 | 3901 ft | 181 kts | 195° |
| 2026-04-27 13:27 | -25.47772 | -54.62845 | 3759 ft | 177 kts | 150° |
| 2026-04-27 13:27 | -25.48800 | -54.62049 | 3552 ft | 183 kts | 142° |
| 2026-04-27 13:27 | -25.49738 | -54.61148 | 3331 ft | 174 kts | 139° |
| 2026-04-27 13:27 | -25.50595 | -54.60249 | 3103 ft | 166 kts | 135° |
| 2026-04-27 13:28 | -25.51347 | -54.59341 | 2916 ft | 153 kts | 133° |
| 2026-04-27 13:28 | -25.52032 | -54.58471 | 2707 ft | 151 kts | 133° |
| 2026-04-27 13:28 | -25.52709 | -54.57611 | 2474 ft | 148 kts | 132° |
| 2026-04-27 13:28 | -25.53372 | -54.56750 | 2311 ft | 148 kts | 133° |
| 2026-04-27 13:29 | -25.54039 | -54.55887 | 2093 ft | 147 kts | 133° |
| 2026-04-27 13:29 | -25.54704 | -54.55029 | 1897 ft | 147 kts | 133° |
| 2026-04-27 13:29 | -25.55373 | -54.54165 | 1717 ft | 148 kts | 133° |
| 2026-04-27 13:29 | -25.56043 | -54.53301 | 1515 ft | 147 kts | 133° |
| 2026-04-27 13:30 | -25.56710 | -54.52443 | 1309 ft | 146 kts | 134° |
| 2026-04-27 13:30 | -25.57367 | -54.51594 | 1137 ft | 146 kts | 133° |
| 2026-04-27 13:30 | -25.58021 | -54.50728 | 985 ft | 146 kts | 132° |
| 2026-04-27 13:30 | -25.58686 | -54.49874 | 831 ft | 146 kts | 133° |
| 2026-04-27 13:31 | -25.59332 | -54.49050 | 767 ft | 130 kts | 131° |
| 2026-04-27 13:31 | -25.59782 | -54.48477 | 765 ft | 67 kts | 130° |
| 2026-04-27 13:31 | -25.59915 | -54.48320 | 766 ft | 13 kts | 158° |
| 2026-04-27 13:31 | -25.59953 | -54.48292 | 766 ft | 0 kts | 98° |
| 2026-04-27 13:32 | -25.59948 | -54.48287 | 766 ft | 2 kts | 38° |
| 2026-04-27 13:32 | -25.59918 | -54.48305 | 766 ft | 9 kts | 315° |
| 2026-04-27 13:33 | -25.59861 | -54.48376 | 766 ft | 13 kts | 311° |
| 2026-04-27 13:33 | -25.59805 | -54.48454 | 765 ft | 12 kts | 293° |
| 2026-04-27 13:33 | -25.59830 | -54.48512 | 765 ft | 7 kts | 228° |
| 2026-04-27 13:33 | -25.59839 | -54.48560 | 766 ft | 7 kts | 297° |
| 2026-04-27 13:34 | -25.59810 | -54.48602 | 766 ft | 7 kts | 310° |
| 2026-04-27 13:34 | -25.59779 | -54.48642 | 766 ft | 7 kts | 311° |
| 2026-04-27 13:34 | -25.59748 | -54.48680 | 766 ft | 7 kts | 310° |
| 2026-04-27 13:34 | -25.59718 | -54.48719 | 766 ft | 6 kts | 310° |
| 2026-04-27 13:35 | -25.59689 | -54.48756 | 766 ft | 6 kts | 310° |
| 2026-04-27 13:35 | -25.59661 | -54.48793 | 766 ft | 6 kts | 304° |
| 2026-04-27 13:35 | -25.59681 | -54.48831 | 766 ft | 6 kts | 220° |
| 2026-04-27 13:35 | -25.59699 | -54.48849 | 766 ft | 1 kts | 222° |
| 2026-04-27 13:36 | -25.59702 | -54.48852 | 766 ft | 0 kts | 222° |